sensor_id;sensor_type;location;lat;lon;timestamp;P1;durP1;ratioP1;P2;durP2;ratioP2
32874;SDS011;40468;42.128;24.750;2022-12-16T00:00:17;69.57;;;32.35;;
32874;SDS011;40468;42.128;24.750;2022-12-16T00:01:50;75.40;;;32.40;;
32874;SDS011;40468;42.128;24.750;2022-12-16T00:03:22;75.55;;;31.25;;
32874;SDS011;40468;42.128;24.750;2022-12-16T00:04:54;66.70;;;29.00;;
32874;SDS011;40468;42.128;24.750;2022-12-16T00:06:29;67.32;;;31.13;;
32874;SDS011;40468;42.128;24.750;2022-12-16T00:08:03;68.93;;;32.60;;
32874;SDS011;40468;42.128;24.750;2022-12-16T00:09:35;74.40;;;32.28;;
32874;SDS011;40468;42.128;24.750;2022-12-16T00:11:07;77.30;;;32.05;;
32874;SDS011;40468;42.128;24.750;2022-12-16T00:12:40;70.07;;;32.30;;
32874;SDS011;40468;42.128;24.750;2022-12-16T00:14:12;71.43;;;32.00;;
32874;SDS011;40468;42.128;24.750;2022-12-16T00:15:44;69.13;;;31.08;;
32874;SDS011;40468;42.128;24.750;2022-12-16T00:17:17;72.90;;;31.10;;
32874;SDS011;40468;42.128;24.750;2022-12-16T00:18:49;74.20;;;31.40;;
32874;SDS011;40468;42.128;24.750;2022-12-16T00:20:21;74.45;;;33.05;;
32874;SDS011;40468;42.128;24.750;2022-12-16T00:21:52;65.97;;;30.75;;
32874;SDS011;40468;42.128;24.750;2022-12-16T00:23:24;65.32;;;30.42;;
32874;SDS011;40468;42.128;24.750;2022-12-16T00:24:58;62.85;;;29.15;;
32874;SDS011;40468;42.128;24.750;2022-12-16T00:26:29;67.70;;;29.40;;
32874;SDS011;40468;42.128;24.750;2022-12-16T00:28:01;69.50;;;28.50;;
32874;SDS011;40468;42.128;24.750;2022-12-16T00:29:33;60.90;;;28.17;;
32874;SDS011;40468;42.128;24.750;2022-12-16T00:31:05;60.80;;;27.75;;
32874;SDS011;40468;42.128;24.750;2022-12-16T00:32:39;56.65;;;27.65;;
32874;SDS011;40468;42.128;24.750;2022-12-16T00:34:10;58.20;;;26.67;;
32874;SDS011;40468;42.128;24.750;2022-12-16T00:35:42;60.72;;;28.15;;
32874;SDS011;40468;42.128;24.750;2022-12-16T00:37:16;57.65;;;26.70;;
32874;SDS011;40468;42.128;24.750;2022-12-16T00:38:48;62.45;;;27.20;;
32874;SDS011;40468;42.128;24.750;2022-12-16T00:40:21;63.30;;;27.65;;
32874;SDS011;40468;42.128;24.750;2022-12-16T00:41:54;62.80;;;26.67;;
32874;SDS011;40468;42.128;24.750;2022-12-16T00:43:26;58.30;;;27.30;;
32874;SDS011;40468;42.128;24.750;2022-12-16T00:44:58;59.03;;;28.05;;
32874;SDS011;40468;42.128;24.750;2022-12-16T00:46:29;54.45;;;26.45;;
32874;SDS011;40468;42.128;24.750;2022-12-16T00:48:03;63.97;;;27.33;;
32874;SDS011;40468;42.128;24.750;2022-12-16T00:49:35;59.30;;;26.65;;
32874;SDS011;40468;42.128;24.750;2022-12-16T00:51:07;59.58;;;27.88;;
32874;SDS011;40468;42.128;24.750;2022-12-16T00:52:38;62.55;;;26.80;;
32874;SDS011;40468;42.128;24.750;2022-12-16T00:54:10;66.28;;;28.33;;
32874;SDS011;40468;42.128;24.750;2022-12-16T00:55:42;66.70;;;28.23;;
32874;SDS011;40468;42.128;24.750;2022-12-16T00:57:15;63.65;;;27.85;;
32874;SDS011;40468;42.128;24.750;2022-12-16T00:58:47;59.85;;;27.17;;
32874;SDS011;40468;42.128;24.750;2022-12-16T01:00:19;66.70;;;28.13;;
32874;SDS011;40468;42.128;24.750;2022-12-16T01:01:51;58.95;;;27.58;;
32874;SDS011;40468;42.128;24.750;2022-12-16T01:03:24;57.40;;;26.70;;
32874;SDS011;40468;42.128;24.750;2022-12-16T01:04:56;62.90;;;27.75;;
32874;SDS011;40468;42.128;24.750;2022-12-16T01:06:29;57.13;;;27.63;;
32874;SDS011;40468;42.128;24.750;2022-12-16T01:08:01;60.45;;;26.90;;
32874;SDS011;40468;42.128;24.750;2022-12-16T01:09:33;62.47;;;27.60;;
32874;SDS011;40468;42.128;24.750;2022-12-16T01:11:06;58.13;;;27.23;;
32874;SDS011;40468;42.128;24.750;2022-12-16T01:12:40;63.80;;;27.50;;
32874;SDS011;40468;42.128;24.750;2022-12-16T01:14:12;61.45;;;26.98;;
32874;SDS011;40468;42.128;24.750;2022-12-16T01:15:44;64.43;;;28.60;;
32874;SDS011;40468;42.128;24.750;2022-12-16T01:17:15;56.72;;;25.13;;
32874;SDS011;40468;42.128;24.750;2022-12-16T01:18:49;54.67;;;25.48;;
32874;SDS011;40468;42.128;24.750;2022-12-16T01:20:21;61.72;;;27.73;;
32874;SDS011;40468;42.128;24.750;2022-12-16T01:21:52;61.85;;;28.25;;
32874;SDS011;40468;42.128;24.750;2022-12-16T01:23:24;60.17;;;26.63;;
32874;SDS011;40468;42.128;24.750;2022-12-16T01:24:56;60.72;;;27.38;;
32874;SDS011;40468;42.128;24.750;2022-12-16T01:26:28;58.97;;;26.52;;
32874;SDS011;40468;42.128;24.750;2022-12-16T01:28:00;57.70;;;26.27;;
32874;SDS011;40468;42.128;24.750;2022-12-16T01:29:32;59.40;;;25.77;;
32874;SDS011;40468;42.128;24.750;2022-12-16T01:31:04;55.20;;;25.90;;
32874;SDS011;40468;42.128;24.750;2022-12-16T01:32:36;58.55;;;27.00;;
32874;SDS011;40468;42.128;24.750;2022-12-16T01:34:09;58.97;;;27.10;;
32874;SDS011;40468;42.128;24.750;2022-12-16T01:35:41;57.03;;;27.67;;
32874;SDS011;40468;42.128;24.750;2022-12-16T01:37:13;58.20;;;26.10;;
32874;SDS011;40468;42.128;24.750;2022-12-16T01:38:45;59.47;;;27.20;;
32874;SDS011;40468;42.128;24.750;2022-12-16T01:40:18;60.38;;;27.25;;
32874;SDS011;40468;42.128;24.750;2022-12-16T01:41:52;58.60;;;25.85;;
32874;SDS011;40468;42.128;24.750;2022-12-16T01:43:25;54.50;;;26.92;;
32874;SDS011;40468;42.128;24.750;2022-12-16T01:47:03;64.60;;;26.08;;
32874;SDS011;40468;42.128;24.750;2022-12-16T01:48:40;62.55;;;27.15;;
32874;SDS011;40468;42.128;24.750;2022-12-16T01:50:17;61.45;;;27.58;;
32874;SDS011;40468;42.128;24.750;2022-12-16T01:53:21;58.78;;;26.40;;
32874;SDS011;40468;42.128;24.750;2022-12-16T01:54:53;60.55;;;26.45;;
32874;SDS011;40468;42.128;24.750;2022-12-16T01:56:29;57.05;;;27.42;;
32874;SDS011;40468;42.128;24.750;2022-12-16T01:58:04;62.35;;;28.15;;
32874;SDS011;40468;42.128;24.750;2022-12-16T01:59:40;59.22;;;27.60;;
32874;SDS011;40468;42.128;24.750;2022-12-16T02:01:15;65.97;;;27.38;;
32874;SDS011;40468;42.128;24.750;2022-12-16T02:02:47;55.28;;;27.65;;
32874;SDS011;40468;42.128;24.750;2022-12-16T02:04:19;68.97;;;30.30;;
32874;SDS011;40468;42.128;24.750;2022-12-16T02:05:52;70.68;;;29.50;;
32874;SDS011;40468;42.128;24.750;2022-12-16T02:07:25;61.53;;;28.17;;
32874;SDS011;40468;42.128;24.750;2022-12-16T02:08:57;65.45;;;28.45;;
32874;SDS011;40468;42.128;24.750;2022-12-16T02:10:37;66.63;;;28.92;;
32874;SDS011;40468;42.128;24.750;2022-12-16T02:12:21;62.30;;;26.95;;
32874;SDS011;40468;42.128;24.750;2022-12-16T02:14:07;68.45;;;29.88;;
32874;SDS011;40468;42.128;24.750;2022-12-16T02:15:54;61.80;;;27.65;;
32874;SDS011;40468;42.128;24.750;2022-12-16T02:17:37;64.18;;;28.50;;
32874;SDS011;40468;42.128;24.750;2022-12-16T02:19:28;70.40;;;30.55;;
32874;SDS011;40468;42.128;24.750;2022-12-16T02:21:22;61.38;;;28.40;;
32874;SDS011;40468;42.128;24.750;2022-12-16T02:23:15;67.65;;;29.75;;
32874;SDS011;40468;42.128;24.750;2022-12-16T02:25:20;57.58;;;26.92;;
32874;SDS011;40468;42.128;24.750;2022-12-16T02:27:14;72.95;;;29.48;;
32874;SDS011;40468;42.128;24.750;2022-12-16T02:29:16;76.32;;;29.00;;
32874;SDS011;40468;42.128;24.750;2022-12-16T02:31:09;80.72;;;30.65;;
32874;SDS011;40468;42.128;24.750;2022-12-16T02:32:52;74.75;;;30.63;;
32874;SDS011;40468;42.128;24.750;2022-12-16T02:34:35;90.22;;;29.48;;
32874;SDS011;40468;42.128;24.750;2022-12-16T02:36:21;81.43;;;29.55;;
32874;SDS011;40468;42.128;24.750;2022-12-16T02:38:02;83.38;;;30.55;;
32874;SDS011;40468;42.128;24.750;2022-12-16T02:39:45;91.57;;;29.48;;
32874;SDS011;40468;42.128;24.750;2022-12-16T02:41:22;84.28;;;29.25;;
32874;SDS011;40468;42.128;24.750;2022-12-16T02:43:00;80.28;;;31.23;;
32874;SDS011;40468;42.128;24.750;2022-12-16T02:44:39;83.82;;;30.25;;
32874;SDS011;40468;42.128;24.750;2022-12-16T02:46:17;79.25;;;30.58;;
32874;SDS011;40468;42.128;24.750;2022-12-16T02:47:51;78.32;;;29.80;;
32874;SDS011;40468;42.128;24.750;2022-12-16T02:49:42;77.93;;;30.55;;
32874;SDS011;40468;42.128;24.750;2022-12-16T02:51:17;69.60;;;28.70;;
32874;SDS011;40468;42.128;24.750;2022-12-16T02:52:50;86.03;;;32.13;;
32874;SDS011;40468;42.128;24.750;2022-12-16T02:54:23;75.43;;;30.98;;
32874;SDS011;40468;42.128;24.750;2022-12-16T02:55:58;83.57;;;33.75;;
32874;SDS011;40468;42.128;24.750;2022-12-16T02:59:32;78.28;;;31.80;;
32874;SDS011;40468;42.128;24.750;2022-12-16T03:01:12;82.35;;;31.77;;
32874;SDS011;40468;42.128;24.750;2022-12-16T03:02:54;86.25;;;31.73;;
32874;SDS011;40468;42.128;24.750;2022-12-16T03:04:33;76.97;;;31.73;;
32874;SDS011;40468;42.128;24.750;2022-12-16T03:06:08;79.05;;;30.60;;
32874;SDS011;40468;42.128;24.750;2022-12-16T03:07:44;79.15;;;32.15;;
32874;SDS011;40468;42.128;24.750;2022-12-16T03:09:20;76.13;;;31.08;;
32874;SDS011;40468;42.128;24.750;2022-12-16T03:10:55;75.82;;;30.42;;
32874;SDS011;40468;42.128;24.750;2022-12-16T03:12:30;71.55;;;29.17;;
32874;SDS011;40468;42.128;24.750;2022-12-16T03:14:04;72.88;;;30.15;;
32874;SDS011;40468;42.128;24.750;2022-12-16T03:15:40;76.53;;;31.13;;
32874;SDS011;40468;42.128;24.750;2022-12-16T03:17:14;87.55;;;33.42;;
32874;SDS011;40468;42.128;24.750;2022-12-16T03:20:23;71.68;;;28.73;;
32874;SDS011;40468;42.128;24.750;2022-12-16T03:22:01;75.65;;;29.58;;
32874;SDS011;40468;42.128;24.750;2022-12-16T03:23:38;69.78;;;28.77;;
32874;SDS011;40468;42.128;24.750;2022-12-16T03:25:15;60.05;;;28.05;;
32874;SDS011;40468;42.128;24.750;2022-12-16T03:28:27;66.15;;;27.13;;
32874;SDS011;40468;42.128;24.750;2022-12-16T03:30:10;68.90;;;29.70;;
32874;SDS011;40468;42.128;24.750;2022-12-16T03:31:47;60.80;;;29.35;;
32874;SDS011;40468;42.128;24.750;2022-12-16T03:33:23;60.30;;;27.42;;
32874;SDS011;40468;42.128;24.750;2022-12-16T03:35:01;56.35;;;26.98;;
32874;SDS011;40468;42.128;24.750;2022-12-16T03:36:42;66.95;;;28.20;;
32874;SDS011;40468;42.128;24.750;2022-12-16T03:38:19;56.53;;;26.38;;
32874;SDS011;40468;42.128;24.750;2022-12-16T03:39:53;62.75;;;28.27;;
32874;SDS011;40468;42.128;24.750;2022-12-16T03:41:28;59.75;;;27.52;;
32874;SDS011;40468;42.128;24.750;2022-12-16T03:43:02;59.05;;;27.02;;
32874;SDS011;40468;42.128;24.750;2022-12-16T03:44:34;51.35;;;25.85;;
32874;SDS011;40468;42.128;24.750;2022-12-16T03:46:06;52.22;;;25.67;;
32874;SDS011;40468;42.128;24.750;2022-12-16T03:47:38;58.13;;;28.33;;
32874;SDS011;40468;42.128;24.750;2022-12-16T03:49:10;54.95;;;25.80;;
32874;SDS011;40468;42.128;24.750;2022-12-16T03:50:44;47.05;;;25.10;;
32874;SDS011;40468;42.128;24.750;2022-12-16T03:52:16;47.67;;;25.77;;
32874;SDS011;40468;42.128;24.750;2022-12-16T03:53:47;44.08;;;23.55;;
32874;SDS011;40468;42.128;24.750;2022-12-16T03:55:19;43.90;;;22.75;;
32874;SDS011;40468;42.128;24.750;2022-12-16T03:56:51;52.40;;;22.92;;
32874;SDS011;40468;42.128;24.750;2022-12-16T03:58:22;45.20;;;22.02;;
32874;SDS011;40468;42.128;24.750;2022-12-16T03:59:54;41.20;;;21.52;;
32874;SDS011;40468;42.128;24.750;2022-12-16T04:01:26;42.92;;;21.88;;
32874;SDS011;40468;42.128;24.750;2022-12-16T04:02:58;40.80;;;20.67;;
32874;SDS011;40468;42.128;24.750;2022-12-16T04:04:29;40.97;;;21.95;;
32874;SDS011;40468;42.128;24.750;2022-12-16T04:06:02;44.40;;;21.27;;
32874;SDS011;40468;42.128;24.750;2022-12-16T04:07:34;40.22;;;20.27;;
32874;SDS011;40468;42.128;24.750;2022-12-16T04:09:06;42.67;;;19.42;;
32874;SDS011;40468;42.128;24.750;2022-12-16T04:10:38;38.42;;;21.38;;
32874;SDS011;40468;42.128;24.750;2022-12-16T04:12:27;41.58;;;20.88;;
32874;SDS011;40468;42.128;24.750;2022-12-16T04:14:16;35.05;;;18.67;;
32874;SDS011;40468;42.128;24.750;2022-12-16T04:16:06;43.63;;;20.73;;
32874;SDS011;40468;42.128;24.750;2022-12-16T04:17:56;37.33;;;19.77;;
32874;SDS011;40468;42.128;24.750;2022-12-16T04:19:46;39.50;;;19.88;;
32874;SDS011;40468;42.128;24.750;2022-12-16T04:21:37;41.25;;;19.60;;
32874;SDS011;40468;42.128;24.750;2022-12-16T04:23:27;39.92;;;19.05;;
32874;SDS011;40468;42.128;24.750;2022-12-16T04:25:20;41.33;;;20.90;;
32874;SDS011;40468;42.128;24.750;2022-12-16T04:26:53;38.70;;;18.75;;
32874;SDS011;40468;42.128;24.750;2022-12-16T04:28:43;36.83;;;19.08;;
32874;SDS011;40468;42.128;24.750;2022-12-16T04:30:15;38.53;;;19.38;;
32874;SDS011;40468;42.128;24.750;2022-12-16T04:31:50;41.78;;;19.70;;
32874;SDS011;40468;42.128;24.750;2022-12-16T04:33:22;37.38;;;20.27;;
32874;SDS011;40468;42.128;24.750;2022-12-16T04:35:12;37.13;;;19.90;;
32874;SDS011;40468;42.128;24.750;2022-12-16T04:37:00;37.88;;;18.02;;
32874;SDS011;40468;42.128;24.750;2022-12-16T04:39:01;36.95;;;18.80;;
32874;SDS011;40468;42.128;24.750;2022-12-16T04:40:51;34.55;;;18.40;;
32874;SDS011;40468;42.128;24.750;2022-12-16T04:42:40;38.13;;;19.63;;
32874;SDS011;40468;42.128;24.750;2022-12-16T04:44:29;38.63;;;18.92;;
32874;SDS011;40468;42.128;24.750;2022-12-16T04:46:18;36.65;;;19.00;;
32874;SDS011;40468;42.128;24.750;2022-12-16T04:48:07;36.60;;;17.63;;
32874;SDS011;40468;42.128;24.750;2022-12-16T04:49:56;36.58;;;18.75;;
32874;SDS011;40468;42.128;24.750;2022-12-16T04:51:45;41.38;;;19.85;;
32874;SDS011;40468;42.128;24.750;2022-12-16T04:53:36;40.67;;;18.83;;
32874;SDS011;40468;42.128;24.750;2022-12-16T04:55:25;38.50;;;18.80;;
32874;SDS011;40468;42.128;24.750;2022-12-16T04:57:14;38.35;;;19.73;;
32874;SDS011;40468;42.128;24.750;2022-12-16T04:59:03;37.20;;;19.38;;
32874;SDS011;40468;42.128;24.750;2022-12-16T05:00:52;41.33;;;20.23;;
32874;SDS011;40468;42.128;24.750;2022-12-16T05:02:41;35.95;;;18.60;;
32874;SDS011;40468;42.128;24.750;2022-12-16T05:04:30;40.53;;;19.73;;
32874;SDS011;40468;42.128;24.750;2022-12-16T05:06:20;40.70;;;19.73;;
32874;SDS011;40468;42.128;24.750;2022-12-16T05:08:09;38.08;;;19.30;;
32874;SDS011;40468;42.128;24.750;2022-12-16T05:10:00;43.38;;;20.35;;
32874;SDS011;40468;42.128;24.750;2022-12-16T05:11:49;36.72;;;19.73;;
32874;SDS011;40468;42.128;24.750;2022-12-16T05:13:39;38.20;;;19.23;;
32874;SDS011;40468;42.128;24.750;2022-12-16T05:15:28;40.47;;;19.42;;
32874;SDS011;40468;42.128;24.750;2022-12-16T05:17:18;42.88;;;20.73;;
32874;SDS011;40468;42.128;24.750;2022-12-16T05:19:07;42.78;;;20.85;;
32874;SDS011;40468;42.128;24.750;2022-12-16T05:21:05;44.15;;;21.73;;
32874;SDS011;40468;42.128;24.750;2022-12-16T05:22:54;46.42;;;21.08;;
32874;SDS011;40468;42.128;24.750;2022-12-16T05:24:43;49.83;;;22.90;;
32874;SDS011;40468;42.128;24.750;2022-12-16T05:26:34;47.88;;;23.17;;
32874;SDS011;40468;42.128;24.750;2022-12-16T05:28:20;51.70;;;22.45;;
32874;SDS011;40468;42.128;24.750;2022-12-16T05:30:10;53.17;;;23.67;;
32874;SDS011;40468;42.128;24.750;2022-12-16T05:32:00;60.88;;;25.40;;
32874;SDS011;40468;42.128;24.750;2022-12-16T05:33:49;50.72;;;23.77;;
32874;SDS011;40468;42.128;24.750;2022-12-16T05:35:37;44.53;;;21.98;;
32874;SDS011;40468;42.128;24.750;2022-12-16T05:37:41;54.15;;;23.42;;
32874;SDS011;40468;42.128;24.750;2022-12-16T05:39:30;46.50;;;22.38;;
32874;SDS011;40468;42.128;24.750;2022-12-16T05:41:20;48.15;;;21.25;;
32874;SDS011;40468;42.128;24.750;2022-12-16T05:43:10;42.42;;;21.38;;
32874;SDS011;40468;42.128;24.750;2022-12-16T05:45:00;46.35;;;21.40;;
32874;SDS011;40468;42.128;24.750;2022-12-16T05:46:49;45.10;;;22.48;;
32874;SDS011;40468;42.128;24.750;2022-12-16T05:48:39;49.30;;;22.73;;
32874;SDS011;40468;42.128;24.750;2022-12-16T05:50:28;45.50;;;22.15;;
32874;SDS011;40468;42.128;24.750;2022-12-16T05:52:17;43.03;;;21.83;;
32874;SDS011;40468;42.128;24.750;2022-12-16T05:54:07;47.40;;;22.70;;
32874;SDS011;40468;42.128;24.750;2022-12-16T05:55:57;46.00;;;21.75;;
32874;SDS011;40468;42.128;24.750;2022-12-16T05:57:47;48.60;;;22.40;;
32874;SDS011;40468;42.128;24.750;2022-12-16T05:59:38;46.15;;;22.25;;
32874;SDS011;40468;42.128;24.750;2022-12-16T06:01:28;47.95;;;21.90;;
32874;SDS011;40468;42.128;24.750;2022-12-16T06:03:17;54.70;;;22.98;;
32874;SDS011;40468;42.128;24.750;2022-12-16T06:05:06;50.88;;;22.27;;
32874;SDS011;40468;42.128;24.750;2022-12-16T06:06:56;47.95;;;22.85;;
32874;SDS011;40468;42.128;24.750;2022-12-16T06:08:45;45.17;;;21.13;;
32874;SDS011;40468;42.128;24.750;2022-12-16T06:10:34;48.25;;;22.95;;
32874;SDS011;40468;42.128;24.750;2022-12-16T06:12:23;54.88;;;23.90;;
32874;SDS011;40468;42.128;24.750;2022-12-16T06:14:13;52.58;;;23.63;;
32874;SDS011;40468;42.128;24.750;2022-12-16T06:16:04;56.78;;;25.52;;
32874;SDS011;40468;42.128;24.750;2022-12-16T06:17:53;78.60;;;38.10;;
32874;SDS011;40468;42.128;24.750;2022-12-16T06:19:43;64.97;;;31.48;;
32874;SDS011;40468;42.128;24.750;2022-12-16T06:21:32;57.33;;;28.10;;
32874;SDS011;40468;42.128;24.750;2022-12-16T06:23:22;63.72;;;28.85;;
32874;SDS011;40468;42.128;24.750;2022-12-16T06:25:11;110.47;;;47.75;;
32874;SDS011;40468;42.128;24.750;2022-12-16T06:26:57;89.57;;;43.40;;
32874;SDS011;40468;42.128;24.750;2022-12-16T06:28:46;66.88;;;33.78;;
32874;SDS011;40468;42.128;24.750;2022-12-16T06:30:36;62.55;;;29.75;;
32874;SDS011;40468;42.128;24.750;2022-12-16T06:32:26;65.03;;;29.75;;
32874;SDS011;40468;42.128;24.750;2022-12-16T06:34:15;69.55;;;29.90;;
32874;SDS011;40468;42.128;24.750;2022-12-16T06:36:05;71.10;;;30.13;;
32874;SDS011;40468;42.128;24.750;2022-12-16T06:37:55;69.13;;;30.55;;
32874;SDS011;40468;42.128;24.750;2022-12-16T06:39:44;65.50;;;29.80;;
32874;SDS011;40468;42.128;24.750;2022-12-16T06:41:34;64.15;;;29.05;;
32874;SDS011;40468;42.128;24.750;2022-12-16T06:43:23;64.43;;;29.23;;
32874;SDS011;40468;42.128;24.750;2022-12-16T06:45:12;70.95;;;30.73;;
32874;SDS011;40468;42.128;24.750;2022-12-16T06:47:02;56.03;;;27.50;;
32874;SDS011;40468;42.128;24.750;2022-12-16T06:48:52;60.45;;;29.52;;
32874;SDS011;40468;42.128;24.750;2022-12-16T06:50:42;61.15;;;29.58;;
32874;SDS011;40468;42.128;24.750;2022-12-16T06:52:30;63.72;;;29.23;;
32874;SDS011;40468;42.128;24.750;2022-12-16T06:54:20;57.13;;;28.20;;
32874;SDS011;40468;42.128;24.750;2022-12-16T06:56:11;60.88;;;27.95;;
32874;SDS011;40468;42.128;24.750;2022-12-16T06:58:03;65.32;;;28.67;;
32874;SDS011;40468;42.128;24.750;2022-12-16T06:59:54;64.75;;;29.58;;
32874;SDS011;40468;42.128;24.750;2022-12-16T07:01:43;68.32;;;30.42;;
32874;SDS011;40468;42.128;24.750;2022-12-16T07:03:33;59.58;;;28.38;;
32874;SDS011;40468;42.128;24.750;2022-12-16T07:05:24;61.10;;;28.70;;
32874;SDS011;40468;42.128;24.750;2022-12-16T07:07:13;64.85;;;29.33;;
32874;SDS011;40468;42.128;24.750;2022-12-16T07:09:02;64.63;;;29.77;;
32874;SDS011;40468;42.128;24.750;2022-12-16T07:10:51;59.88;;;27.98;;
32874;SDS011;40468;42.128;24.750;2022-12-16T07:12:41;65.72;;;28.90;;
32874;SDS011;40468;42.128;24.750;2022-12-16T07:14:30;60.05;;;28.80;;
32874;SDS011;40468;42.128;24.750;2022-12-16T07:16:19;60.70;;;28.25;;
32874;SDS011;40468;42.128;24.750;2022-12-16T07:18:09;68.85;;;29.50;;
32874;SDS011;40468;42.128;24.750;2022-12-16T07:19:58;63.53;;;28.25;;
32874;SDS011;40468;42.128;24.750;2022-12-16T07:21:49;63.33;;;29.70;;
32874;SDS011;40468;42.128;24.750;2022-12-16T07:23:38;57.67;;;27.92;;
32874;SDS011;40468;42.128;24.750;2022-12-16T07:25:28;63.70;;;27.15;;
32874;SDS011;40468;42.128;24.750;2022-12-16T07:27:17;67.93;;;28.25;;
32874;SDS011;40468;42.128;24.750;2022-12-16T07:29:06;60.80;;;26.95;;
32874;SDS011;40468;42.128;24.750;2022-12-16T07:31:07;54.35;;;24.15;;
32874;SDS011;40468;42.128;24.750;2022-12-16T07:32:56;53.60;;;25.08;;
32874;SDS011;40468;42.128;24.750;2022-12-16T07:34:46;50.72;;;24.27;;
32874;SDS011;40468;42.128;24.750;2022-12-16T07:36:35;48.40;;;24.40;;
32874;SDS011;40468;42.128;24.750;2022-12-16T07:38:25;48.58;;;23.27;;
32874;SDS011;40468;42.128;24.750;2022-12-16T07:40:15;51.92;;;23.75;;
32874;SDS011;40468;42.128;24.750;2022-12-16T07:42:04;44.03;;;21.25;;
32874;SDS011;40468;42.128;24.750;2022-12-16T07:43:53;45.10;;;21.40;;
32874;SDS011;40468;42.128;24.750;2022-12-16T07:45:42;50.78;;;21.67;;
32874;SDS011;40468;42.128;24.750;2022-12-16T07:47:32;51.67;;;23.42;;
32874;SDS011;40468;42.128;24.750;2022-12-16T07:49:21;50.35;;;21.65;;
32874;SDS011;40468;42.128;24.750;2022-12-16T07:51:11;42.92;;;21.85;;
32874;SDS011;40468;42.128;24.750;2022-12-16T07:53:00;50.97;;;22.27;;
32874;SDS011;40468;42.128;24.750;2022-12-16T07:54:51;54.35;;;21.73;;
32874;SDS011;40468;42.128;24.750;2022-12-16T07:56:40;50.63;;;23.80;;
32874;SDS011;40468;42.128;24.750;2022-12-16T07:58:29;52.47;;;23.27;;
32874;SDS011;40468;42.128;24.750;2022-12-16T08:00:19;46.17;;;21.23;;
32874;SDS011;40468;42.128;24.750;2022-12-16T08:02:08;46.15;;;21.83;;
32874;SDS011;40468;42.128;24.750;2022-12-16T08:03:58;51.25;;;22.48;;
32874;SDS011;40468;42.128;24.750;2022-12-16T08:05:47;50.25;;;23.02;;
32874;SDS011;40468;42.128;24.750;2022-12-16T08:07:38;50.58;;;23.42;;
32874;SDS011;40468;42.128;24.750;2022-12-16T08:09:28;51.85;;;23.85;;
32874;SDS011;40468;42.128;24.750;2022-12-16T08:11:18;52.78;;;23.67;;
32874;SDS011;40468;42.128;24.750;2022-12-16T08:13:08;53.38;;;23.90;;
32874;SDS011;40468;42.128;24.750;2022-12-16T08:14:57;50.10;;;22.90;;
32874;SDS011;40468;42.128;24.750;2022-12-16T08:16:46;49.95;;;23.85;;
32874;SDS011;40468;42.128;24.750;2022-12-16T08:18:36;57.45;;;25.38;;
32874;SDS011;40468;42.128;24.750;2022-12-16T08:20:27;55.55;;;25.42;;
32874;SDS011;40468;42.128;24.750;2022-12-16T08:22:16;49.50;;;23.58;;
32874;SDS011;40468;42.128;24.750;2022-12-16T08:24:06;45.17;;;22.05;;
32874;SDS011;40468;42.128;24.750;2022-12-16T08:25:55;52.25;;;22.92;;
32874;SDS011;40468;42.128;24.750;2022-12-16T08:27:46;51.40;;;22.70;;
32874;SDS011;40468;42.128;24.750;2022-12-16T08:29:41;44.25;;;20.98;;
32874;SDS011;40468;42.128;24.750;2022-12-16T08:31:31;50.45;;;23.67;;
32874;SDS011;40468;42.128;24.750;2022-12-16T08:33:20;44.88;;;21.17;;
32874;SDS011;40468;42.128;24.750;2022-12-16T08:35:09;44.45;;;21.02;;
32874;SDS011;40468;42.128;24.750;2022-12-16T08:36:59;51.33;;;22.15;;
32874;SDS011;40468;42.128;24.750;2022-12-16T08:38:49;50.35;;;22.63;;
32874;SDS011;40468;42.128;24.750;2022-12-16T08:40:38;58.40;;;22.15;;
32874;SDS011;40468;42.128;24.750;2022-12-16T08:42:28;48.58;;;22.77;;
32874;SDS011;40468;42.128;24.750;2022-12-16T08:44:19;52.03;;;23.75;;
32874;SDS011;40468;42.128;24.750;2022-12-16T08:46:08;48.65;;;24.42;;
32874;SDS011;40468;42.128;24.750;2022-12-16T08:47:57;52.00;;;25.27;;
32874;SDS011;40468;42.128;24.750;2022-12-16T08:49:47;51.13;;;24.58;;
32874;SDS011;40468;42.128;24.750;2022-12-16T08:51:36;41.30;;;23.08;;
32874;SDS011;40468;42.128;24.750;2022-12-16T08:53:26;49.58;;;23.58;;
32874;SDS011;40468;42.128;24.750;2022-12-16T08:55:15;47.42;;;23.52;;
32874;SDS011;40468;42.128;24.750;2022-12-16T08:57:04;51.70;;;24.42;;
32874;SDS011;40468;42.128;24.750;2022-12-16T08:58:54;58.42;;;25.80;;
32874;SDS011;40468;42.128;24.750;2022-12-16T09:00:45;47.75;;;23.73;;
32874;SDS011;40468;42.128;24.750;2022-12-16T09:02:34;49.97;;;23.20;;
32874;SDS011;40468;42.128;24.750;2022-12-16T09:04:23;51.45;;;24.38;;
32874;SDS011;40468;42.128;24.750;2022-12-16T09:06:12;47.72;;;24.80;;
32874;SDS011;40468;42.128;24.750;2022-12-16T09:08:02;57.75;;;24.88;;
32874;SDS011;40468;42.128;24.750;2022-12-16T09:09:51;59.53;;;24.70;;
32874;SDS011;40468;42.128;24.750;2022-12-16T09:11:41;50.53;;;23.90;;
32874;SDS011;40468;42.128;24.750;2022-12-16T09:13:30;56.53;;;25.83;;
32874;SDS011;40468;42.128;24.750;2022-12-16T09:15:19;59.28;;;25.95;;
32874;SDS011;40468;42.128;24.750;2022-12-16T09:17:10;52.88;;;24.50;;
32874;SDS011;40468;42.128;24.750;2022-12-16T09:18:59;58.63;;;24.17;;
32874;SDS011;40468;42.128;24.750;2022-12-16T09:20:49;56.10;;;25.38;;
32874;SDS011;40468;42.128;24.750;2022-12-16T09:22:39;52.38;;;26.13;;
32874;SDS011;40468;42.128;24.750;2022-12-16T09:24:28;50.60;;;24.20;;
32874;SDS011;40468;42.128;24.750;2022-12-16T09:26:18;50.65;;;24.20;;
32874;SDS011;40468;42.128;24.750;2022-12-16T09:28:07;58.40;;;24.25;;
32874;SDS011;40468;42.128;24.750;2022-12-16T09:29:56;53.53;;;26.00;;
32874;SDS011;40468;42.128;24.750;2022-12-16T09:31:45;55.28;;;26.40;;
32874;SDS011;40468;42.128;24.750;2022-12-16T09:33:36;50.85;;;24.05;;
32874;SDS011;40468;42.128;24.750;2022-12-16T09:35:26;58.22;;;25.63;;
32874;SDS011;40468;42.128;24.750;2022-12-16T09:37:16;50.88;;;25.42;;
32874;SDS011;40468;42.128;24.750;2022-12-16T09:39:05;60.70;;;26.45;;
32874;SDS011;40468;42.128;24.750;2022-12-16T09:40:55;55.40;;;25.20;;
32874;SDS011;40468;42.128;24.750;2022-12-16T09:42:46;49.60;;;23.92;;
32874;SDS011;40468;42.128;24.750;2022-12-16T09:44:47;58.92;;;25.33;;
32874;SDS011;40468;42.128;24.750;2022-12-16T09:46:48;63.53;;;28.17;;
32874;SDS011;40468;42.128;24.750;2022-12-16T09:48:46;52.70;;;26.35;;
32874;SDS011;40468;42.128;24.750;2022-12-16T09:50:41;58.15;;;26.60;;
32874;SDS011;40468;42.128;24.750;2022-12-16T09:52:32;59.92;;;26.60;;
32874;SDS011;40468;42.128;24.750;2022-12-16T09:54:27;59.17;;;26.02;;
32874;SDS011;40468;42.128;24.750;2022-12-16T09:56:22;52.40;;;26.52;;
32874;SDS011;40468;42.128;24.750;2022-12-16T09:58:16;54.92;;;25.90;;
32874;SDS011;40468;42.128;24.750;2022-12-16T10:00:12;54.28;;;26.33;;
32874;SDS011;40468;42.128;24.750;2022-12-16T10:02:09;61.70;;;26.08;;
32874;SDS011;40468;42.128;24.750;2022-12-16T10:04:01;60.20;;;26.05;;